createdAt,value
2023-04-07T00:01:19.963Z,7.00
2023-04-07T00:02:41.910Z,6.50
2023-04-07T00:04:04.597Z,5.47
2023-04-07T00:05:25.592Z,5.05
2023-04-07T00:06:46.085Z,5.75
2023-04-07T00:08:06.489Z,5.00
2023-04-07T00:09:27.348Z,5.22
2023-04-07T00:10:48.048Z,5.40
2023-04-07T00:12:08.639Z,4.83
2023-04-07T00:13:29.628Z,5.13
2023-04-07T00:14:52.556Z,5.22
2023-04-07T00:16:13.563Z,5.63
2023-04-07T00:17:34.486Z,4.60
2023-04-07T00:18:58.045Z,6.32
2023-04-07T00:20:18.660Z,5.47
2023-04-07T00:21:38.977Z,5.20
2023-04-07T00:22:59.717Z,6.95
2023-04-07T00:24:30.993Z,5.13
2023-04-07T00:25:55.017Z,5.63
2023-04-07T00:27:15.412Z,5.97
2023-04-07T00:28:36.098Z,5.30
2023-04-07T00:29:57.884Z,5.88
2023-04-07T00:31:18.894Z,5.97
2023-04-07T00:32:39.449Z,5.20
2023-04-07T00:34:00.129Z,5.80
2023-04-07T00:35:20.842Z,5.17
2023-04-07T00:36:41.452Z,5.93
2023-04-07T00:38:01.913Z,5.03
2023-04-07T00:39:22.299Z,5.57
2023-04-07T00:40:43.085Z,5.43
2023-04-07T00:42:03.990Z,4.57
2023-04-07T00:43:24.589Z,4.55
2023-04-07T00:44:46.800Z,4.60
2023-04-07T00:46:08.511Z,3.95
2023-04-07T00:47:29.246Z,4.63
2023-04-07T00:48:49.836Z,4.45
2023-04-07T00:50:10.872Z,5.27
2023-04-07T00:51:31.232Z,4.70
2023-04-07T00:52:51.455Z,4.95
2023-04-07T00:54:12.397Z,4.75
2023-04-07T00:55:33.005Z,5.55
2023-04-07T00:56:53.495Z,3.95
2023-04-07T00:58:14.037Z,4.85
2023-04-07T00:59:34.671Z,5.20
2023-04-07T01:01:01.949Z,4.65
2023-04-07T01:02:30.157Z,5.32
2023-04-07T01:03:55.101Z,4.53
2023-04-07T01:05:21.212Z,5.53
2023-04-07T01:06:47.811Z,4.60
2023-04-07T01:08:13.460Z,5.60
2023-04-07T01:09:37.448Z,4.63
2023-04-07T01:11:03.090Z,5.60
2023-04-07T01:12:31.980Z,5.22
2023-04-07T01:13:54.472Z,4.55
2023-04-07T01:15:16.594Z,4.78
2023-04-07T01:16:45.595Z,4.60
2023-04-07T01:18:13.076Z,4.80
2023-04-07T01:19:37.119Z,5.20
2023-04-07T01:21:02.739Z,5.03
2023-04-07T01:22:26.838Z,5.38
2023-04-07T01:24:12.576Z,5.85
2023-04-07T01:26:00.473Z,5.57
2023-04-07T01:27:25.265Z,7.53
2023-04-07T01:29:09.476Z,6.03
2023-04-07T01:30:33.292Z,5.43
2023-04-07T01:31:55.878Z,5.63
2023-04-07T01:33:16.481Z,6.60
2023-04-07T01:34:37.501Z,6.40
2023-04-07T01:36:00.163Z,6.38
2023-04-07T01:37:20.967Z,6.55
2023-04-07T01:38:42.390Z,6.65
2023-04-07T01:40:03.418Z,6.53
2023-04-07T01:41:24.870Z,6.20
2023-04-07T01:42:46.309Z,6.28
2023-04-07T01:45:27.894Z,6.63
2023-04-07T01:46:50.831Z,7.68
2023-04-07T01:48:12.016Z,6.05
2023-04-07T01:49:34.082Z,5.82
2023-04-07T01:50:55.107Z,5.55
2023-04-07T01:52:15.555Z,5.55
2023-04-07T01:53:36.396Z,5.70
2023-04-07T01:54:57.089Z,6.60
2023-04-07T01:56:17.469Z,5.70
2023-04-07T01:57:38.238Z,5.55
2023-04-07T01:58:58.875Z,6.20
2023-04-07T02:00:19.583Z,5.43
2023-04-07T02:01:40.639Z,5.57
2023-04-07T02:04:31.110Z,5.80
2023-04-07T02:05:55.488Z,5.32
2023-04-07T02:07:20.326Z,5.60
2023-04-07T02:08:42.858Z,4.95
2023-04-07T02:10:04.145Z,5.57
2023-04-07T02:11:29.731Z,6.18
2023-04-07T02:12:50.434Z,6.45
2023-04-07T02:14:11.772Z,5.70
2023-04-07T02:15:32.561Z,4.90
2023-04-07T02:16:53.915Z,5.93
2023-04-07T02:18:15.901Z,5.95
2023-04-07T02:19:36.667Z,6.57
2023-04-07T02:20:57.657Z,6.07
2023-04-07T02:22:18.641Z,5.03
2023-04-07T02:23:39.310Z,5.03
2023-04-07T02:24:59.968Z,5.60
2023-04-07T02:26:20.577Z,5.67
2023-04-07T02:27:40.958Z,6.20
2023-04-07T02:29:01.729Z,4.68
2023-04-07T02:30:22.806Z,5.32
2023-04-07T02:31:43.499Z,5.90
2023-04-07T02:33:04.152Z,5.30
2023-04-07T02:34:26.015Z,5.35
2023-04-07T02:35:46.628Z,6.53
2023-04-07T02:37:07.326Z,6.05
2023-04-07T02:38:27.836Z,5.68
2023-04-07T02:39:48.458Z,5.78
2023-04-07T02:41:08.756Z,6.10
2023-04-07T02:42:29.458Z,5.60
2023-04-07T02:43:50.164Z,5.38
2023-04-07T02:45:11.670Z,6.28
2023-04-07T02:46:32.158Z,6.45
2023-04-07T02:47:53.028Z,5.78
2023-04-07T02:49:13.636Z,5.60
2023-04-07T02:50:35.506Z,5.88
2023-04-07T02:51:56.187Z,6.32
2023-04-07T02:53:16.877Z,5.57
2023-04-07T02:54:37.632Z,6.18
2023-04-07T02:55:58.517Z,6.47
2023-04-07T02:57:19.083Z,6.20
2023-04-07T02:58:39.640Z,7.03
2023-04-07T03:00:00.547Z,6.78
2023-04-07T03:01:21.256Z,6.32
2023-04-07T03:02:42.221Z,6.72
2023-04-07T03:04:03.125Z,7.03
2023-04-07T03:05:23.596Z,7.35
2023-04-07T03:06:45.472Z,5.93
2023-04-07T03:08:06.381Z,6.25
2023-04-07T03:09:27.223Z,5.90
2023-04-07T03:10:48.111Z,6.40
2023-04-07T03:12:08.616Z,5.82
2023-04-07T03:13:29.230Z,6.18
2023-04-07T03:14:49.704Z,5.80
2023-04-07T03:16:10.596Z,4.97
2023-04-07T03:17:31.759Z,5.78
2023-04-07T03:20:13.182Z,4.90
2023-04-07T03:21:34.315Z,4.95
2023-04-07T03:22:56.636Z,6.10
2023-04-07T03:24:17.401Z,5.32
2023-04-07T03:25:38.176Z,5.35
2023-04-07T03:26:58.926Z,7.05
2023-04-07T03:28:19.531Z,5.27
2023-04-07T03:29:40.079Z,5.65
2023-04-07T03:31:00.878Z,5.63
2023-04-07T03:32:21.723Z,5.57
2023-04-07T03:33:42.100Z,5.53
2023-04-07T03:35:02.843Z,6.72
2023-04-07T03:36:23.425Z,5.88
2023-04-07T03:37:44.076Z,5.65
2023-04-07T03:39:06.226Z,4.93
2023-04-07T03:40:26.795Z,5.25
2023-04-07T03:41:47.840Z,6.10
2023-04-07T03:43:08.248Z,6.68
2023-04-07T03:44:28.822Z,5.00
2023-04-07T03:45:49.093Z,5.78
2023-04-07T03:47:09.434Z,6.20
2023-04-07T03:48:30.440Z,3.90
2023-04-07T03:49:51.249Z,3.75
2023-04-07T03:51:12.134Z,3.80
2023-04-07T03:52:32.366Z,3.80
2023-04-07T03:53:53.454Z,3.25
2023-04-07T03:55:15.761Z,3.13
2023-04-07T03:56:36.436Z,4.05
2023-04-07T03:57:57.291Z,3.67
2023-04-07T03:59:17.562Z,3.42
2023-04-07T04:00:38.159Z,3.60
2023-04-07T04:01:59.001Z,3.60
2023-04-07T04:03:19.776Z,3.07
2023-04-07T04:04:40.237Z,2.83
2023-04-07T04:06:00.940Z,2.57
2023-04-07T04:07:22.088Z,2.72
2023-04-07T04:08:42.792Z,2.60
2023-04-07T04:10:03.401Z,1.90
2023-04-07T04:11:25.540Z,2.15
2023-04-07T04:12:47.336Z,1.98
2023-04-07T04:15:28.284Z,2.88
2023-04-07T04:16:49.069Z,3.50
2023-04-07T04:18:09.446Z,2.90
2023-04-07T04:19:29.869Z,3.28
2023-04-07T04:20:50.280Z,3.10
2023-04-07T04:22:10.933Z,3.35
2023-04-07T04:23:31.409Z,3.10
2023-04-07T04:24:51.998Z,3.50
2023-04-07T04:26:12.176Z,3.88
2023-04-07T04:27:34.248Z,4.10
2023-04-07T04:28:55.062Z,4.47
2023-04-07T04:30:15.554Z,4.15
2023-04-07T04:31:36.054Z,4.60
2023-04-07T04:32:56.529Z,4.43
2023-04-07T04:34:17.260Z,3.97
2023-04-07T04:35:37.634Z,3.80
2023-04-07T04:36:58.041Z,3.80
2023-04-07T04:38:18.823Z,3.97
2023-04-07T04:39:39.151Z,3.58
2023-04-07T04:40:59.765Z,3.60
2023-04-07T04:42:20.352Z,3.97
2023-04-07T04:43:42.567Z,3.70
2023-04-07T04:45:03.076Z,3.67
2023-04-07T04:46:23.491Z,3.58
2023-04-07T04:47:43.961Z,4.05
2023-04-07T04:49:04.422Z,3.57
2023-04-07T04:50:25.228Z,4.35
2023-04-07T04:51:46.111Z,4.82
2023-04-07T04:53:07.013Z,3.85
2023-04-07T04:54:27.513Z,4.82
2023-04-07T04:55:47.749Z,4.13
2023-04-07T04:57:08.655Z,3.75
2023-04-07T04:58:29.365Z,3.50
2023-04-07T04:59:51.448Z,3.10
2023-04-07T05:01:12.374Z,3.80
2023-04-07T05:02:33.028Z,4.18
2023-04-07T05:03:54.138Z,3.40
2023-04-07T05:05:15.147Z,4.03
2023-04-07T05:06:36.027Z,4.28
2023-04-07T05:07:56.704Z,4.38
2023-04-07T05:09:17.274Z,3.55
2023-04-07T05:10:38.839Z,3.45
2023-04-07T05:11:59.582Z,3.55
2023-04-07T05:13:20.014Z,4.65
2023-04-07T05:14:40.618Z,3.88
2023-04-07T05:16:02.619Z,4.20
2023-04-07T05:17:23.266Z,3.75
2023-04-07T05:18:43.691Z,4.00
2023-04-07T05:20:05.322Z,4.13
2023-04-07T05:21:26.182Z,3.83
2023-04-07T05:22:46.552Z,4.40
2023-04-07T05:24:09.255Z,4.53
2023-04-07T05:25:30.015Z,4.00
2023-04-07T05:26:50.562Z,4.55
2023-04-07T05:28:12.068Z,3.30
2023-04-07T05:29:32.680Z,3.50
2023-04-07T05:30:53.617Z,3.35
2023-04-07T05:32:15.570Z,4.55
2023-04-07T05:33:35.909Z,3.95
2023-04-07T05:34:56.559Z,5.43
2023-04-07T05:36:17.242Z,3.22
2023-04-07T05:37:37.822Z,2.93
2023-04-07T05:38:58.412Z,3.20
2023-04-07T05:40:18.841Z,3.70
2023-04-07T05:41:39.469Z,3.47
2023-04-07T05:43:00.042Z,3.03
2023-04-07T05:44:20.883Z,3.03
2023-04-07T05:45:41.727Z,3.60
2023-04-07T05:47:02.095Z,3.90
2023-04-07T05:48:24.008Z,3.00
2023-04-07T05:49:44.787Z,3.70
2023-04-07T05:51:05.387Z,3.78
2023-04-07T05:52:25.873Z,3.50
2023-04-07T05:53:46.827Z,3.13
2023-04-07T05:55:08.420Z,3.33
2023-04-07T05:56:28.811Z,3.20
2023-04-07T05:57:49.216Z,3.83
2023-04-07T05:59:09.970Z,2.85
2023-04-07T06:00:30.613Z,3.05
2023-04-07T06:01:51.559Z,3.15
2023-04-07T06:03:12.113Z,3.53
2023-04-07T06:04:34.225Z,2.85
2023-04-07T06:05:55.835Z,3.03
2023-04-07T06:07:16.152Z,3.30
2023-04-07T06:08:36.903Z,2.92
2023-04-07T06:09:58.010Z,3.20
2023-04-07T06:11:18.541Z,2.92
2023-04-07T06:12:39.238Z,3.72
2023-04-07T06:13:59.665Z,2.80
2023-04-07T06:15:20.279Z,3.30
2023-04-07T06:16:40.904Z,3.08
2023-04-07T06:18:01.643Z,2.80
2023-04-07T06:19:21.983Z,2.97
2023-04-07T06:20:43.946Z,3.03
2023-04-07T06:22:04.647Z,2.78
2023-04-07T06:23:25.416Z,2.72
2023-04-07T06:24:46.110Z,3.00
2023-04-07T06:26:07.551Z,3.53
2023-04-07T06:27:27.878Z,2.92
2023-04-07T06:28:48.471Z,2.90
2023-04-07T06:30:10.446Z,2.67
2023-04-07T06:31:30.982Z,3.25
2023-04-07T06:32:51.359Z,2.97
2023-04-07T06:34:11.860Z,2.83
2023-04-07T06:35:32.466Z,2.53
2023-04-07T06:36:55.204Z,3.75
2023-04-07T06:38:17.016Z,3.10
2023-04-07T06:39:42.325Z,3.15
2023-04-07T06:41:02.829Z,3.92
2023-04-07T06:42:23.616Z,3.55
2023-04-07T06:43:44.718Z,2.97
2023-04-07T06:45:06.418Z,2.72
2023-04-07T06:46:27.099Z,2.60
2023-04-07T06:47:47.588Z,3.58
2023-04-07T06:49:08.186Z,2.63
2023-04-07T06:50:28.886Z,3.00
2023-04-07T06:51:49.612Z,3.17
2023-04-07T06:53:11.626Z,3.10
2023-04-07T06:54:32.124Z,2.55
2023-04-07T06:56:02.356Z,3.05
2023-04-07T06:57:22.796Z,4.15
2023-04-07T06:58:43.282Z,3.88
2023-04-07T07:00:04.570Z,3.67
2023-04-07T07:01:25.217Z,4.30
2023-04-07T07:02:46.021Z,2.80
2023-04-07T07:04:06.878Z,3.27
2023-04-07T07:05:27.380Z,2.88
2023-04-07T07:06:48.381Z,3.20
2023-04-07T07:08:08.963Z,2.72
2023-04-07T07:09:31.364Z,2.58
2023-04-07T07:10:52.681Z,2.63
2023-04-07T07:12:13.249Z,2.60
2023-04-07T07:13:33.791Z,2.88
2023-04-07T07:14:54.295Z,2.53
2023-04-07T07:16:15.159Z,2.72
2023-04-07T07:17:35.872Z,3.33
2023-04-07T07:18:56.656Z,2.47
2023-04-07T07:20:17.707Z,2.55
2023-04-07T07:21:38.209Z,2.60
2023-04-07T07:22:58.828Z,2.30
2023-04-07T07:24:19.730Z,3.13
2023-04-07T07:25:43.139Z,2.67
2023-04-07T07:27:03.832Z,3.40
2023-04-07T07:28:27.305Z,2.65
2023-04-07T07:29:47.712Z,3.38
2023-04-07T07:31:09.987Z,3.55
2023-04-07T07:32:30.699Z,3.08
2023-04-07T07:33:51.335Z,2.53
2023-04-07T07:35:11.877Z,2.65
2023-04-07T07:36:32.535Z,2.42
2023-04-07T07:37:53.810Z,3.28
2023-04-07T07:39:14.734Z,3.30
2023-04-07T07:40:35.500Z,3.60
2023-04-07T07:41:57.560Z,3.00
2023-04-07T07:43:17.787Z,3.53
2023-04-07T07:44:38.283Z,2.75
2023-04-07T07:45:59.220Z,2.63
2023-04-07T07:47:19.811Z,3.10
2023-04-07T07:48:40.723Z,2.47
2023-04-07T07:50:01.132Z,2.50
2023-04-07T07:51:22.437Z,2.88
2023-04-07T07:52:42.940Z,2.70
2023-04-07T07:54:03.871Z,2.63
2023-04-07T07:55:27.370Z,2.80
2023-04-07T07:56:48.309Z,2.83
2023-04-07T07:58:10.426Z,2.15
2023-04-07T07:59:31.086Z,3.30
2023-04-07T08:00:51.413Z,2.45
2023-04-07T08:02:12.151Z,3.05
2023-04-07T08:03:32.744Z,2.78
2023-04-07T08:04:53.616Z,2.83
2023-04-07T08:06:14.033Z,3.17
2023-04-07T08:07:34.646Z,3.03
2023-04-07T08:08:55.278Z,2.90
2023-04-07T08:10:16.059Z,3.28
2023-04-07T08:11:36.609Z,2.70
2023-04-07T08:12:57.658Z,3.00
2023-04-07T08:14:19.701Z,3.35
2023-04-07T08:15:42.212Z,2.88
2023-04-07T08:17:02.654Z,4.60
2023-04-07T08:18:23.433Z,2.87
2023-04-07T08:19:44.296Z,2.97
2023-04-07T08:21:05.293Z,3.75
2023-04-07T08:22:26.018Z,2.97
2023-04-07T08:23:47.084Z,3.13
2023-04-07T08:25:08.279Z,3.00
2023-04-07T08:26:28.875Z,3.13
2023-04-07T08:27:49.638Z,3.38
2023-04-07T08:29:10.197Z,2.67
2023-04-07T08:30:32.303Z,4.03
2023-04-07T08:31:53.083Z,3.85
2023-04-07T08:33:13.690Z,3.92
2023-04-07T08:34:34.249Z,3.38
2023-04-07T08:35:55.149Z,3.03
2023-04-07T08:37:15.567Z,3.35
2023-04-07T08:38:35.887Z,3.40
2023-04-07T08:39:56.748Z,4.03
2023-04-07T08:41:20.768Z,3.60
2023-04-07T08:42:42.678Z,3.63
2023-04-07T08:44:03.638Z,3.55
2023-04-07T08:45:25.935Z,3.33
2023-04-07T08:46:47.947Z,3.88
2023-04-07T08:48:15.130Z,3.10
2023-04-07T08:49:36.990Z,3.40
2023-04-07T08:50:57.711Z,3.80
2023-04-07T08:52:18.766Z,3.10
2023-04-07T08:53:42.027Z,3.28
2023-04-07T08:55:04.615Z,3.03
2023-04-07T08:56:27.695Z,3.25
2023-04-07T08:57:48.777Z,5.20
2023-04-07T08:59:12.444Z,3.63
2023-04-07T09:00:32.818Z,3.45
2023-04-07T09:01:56.132Z,3.70
2023-04-07T09:03:17.279Z,3.00
2023-04-07T09:04:37.984Z,3.03
2023-04-07T09:05:59.790Z,3.13
2023-04-07T09:07:20.453Z,3.35
2023-04-07T09:08:41.055Z,3.27
2023-04-07T09:10:02.018Z,2.97
2023-04-07T09:11:22.728Z,3.22
2023-04-07T09:12:46.144Z,2.63
2023-04-07T09:14:06.527Z,3.70
2023-04-07T09:15:30.765Z,2.78
2023-04-07T09:16:51.336Z,3.40
2023-04-07T09:18:13.596Z,3.08
2023-04-07T09:19:34.079Z,3.67
2023-04-07T09:20:56.320Z,2.90
2023-04-07T09:22:34.622Z,3.72
2023-04-07T09:23:55.144Z,3.35
2023-04-07T09:25:17.546Z,2.78
2023-04-07T09:26:37.898Z,3.08
2023-04-07T09:27:59.751Z,3.30
2023-04-07T09:29:21.092Z,2.95
2023-04-07T09:32:02.182Z,2.63
2023-04-07T09:33:28.858Z,4.00
2023-04-07T09:34:59.044Z,3.05
2023-04-07T09:36:19.736Z,2.90
2023-04-07T09:37:40.531Z,3.83
2023-04-07T09:39:08.341Z,3.35
2023-04-07T09:40:29.057Z,3.33
2023-04-07T09:41:50.162Z,2.67
2023-04-07T09:43:16.152Z,2.25
2023-04-07T09:44:40.374Z,2.92
2023-04-07T09:46:08.024Z,3.40
2023-04-07T09:47:29.507Z,3.40
2023-04-07T09:49:02.704Z,2.80
2023-04-07T09:50:33.110Z,3.15
2023-04-07T09:51:54.754Z,3.67
2023-04-07T09:53:15.302Z,2.53
2023-04-07T09:54:38.278Z,3.93
2023-04-07T09:55:58.628Z,2.70
2023-04-07T09:57:19.378Z,2.67
2023-04-07T09:58:40.439Z,3.75
2023-04-07T10:00:00.971Z,3.20
2023-04-07T10:01:22.211Z,2.60
2023-04-07T10:02:43.808Z,3.08
2023-04-07T10:06:47.512Z,2.67
2023-04-07T10:08:08.052Z,3.58
2023-04-07T10:09:29.363Z,2.50
2023-04-07T10:10:50.222Z,3.50
2023-04-07T10:12:11.324Z,2.53
2023-04-07T10:13:33.023Z,3.03
2023-04-07T10:14:54.944Z,3.33
2023-04-07T10:17:36.317Z,3.30
2023-04-07T10:18:56.930Z,5.15
2023-04-07T10:20:19.568Z,3.70
2023-04-07T10:21:42.615Z,4.03
2023-04-07T10:23:09.996Z,3.33
2023-04-07T10:24:44.438Z,3.92
2023-04-07T10:26:06.756Z,3.63
2023-04-07T10:27:31.328Z,3.50
2023-04-07T10:28:55.560Z,3.33
2023-04-07T10:30:18.988Z,4.40
2023-04-07T10:31:39.672Z,2.97
2023-04-07T10:33:00.550Z,3.10
2023-04-07T10:34:50.747Z,4.13
2023-04-07T10:36:14.051Z,3.70
2023-04-07T10:37:34.271Z,3.28
2023-04-07T10:39:19.654Z,3.38
2023-04-07T10:40:40.879Z,3.00
2023-04-07T10:42:01.393Z,4.72
2023-04-07T10:43:37.980Z,3.55
2023-04-07T10:44:58.656Z,3.65
2023-04-07T10:46:19.217Z,3.78
2023-04-07T10:48:11.181Z,3.88
2023-04-07T10:49:32.503Z,3.35
2023-04-07T10:51:18.509Z,3.40
2023-04-07T10:52:38.902Z,3.50
2023-04-07T10:54:20.531Z,3.97
2023-04-07T10:55:41.333Z,3.25
2023-04-07T10:57:12.453Z,3.42
2023-04-07T10:58:33.301Z,4.10
2023-04-07T11:00:18.536Z,3.38
2023-04-07T11:01:38.948Z,3.83
2023-04-07T11:03:10.949Z,3.65
2023-04-07T11:04:37.085Z,3.70
2023-04-07T11:06:03.897Z,3.60
2023-04-07T11:07:47.909Z,3.70
2023-04-07T11:09:19.389Z,3.17
2023-04-07T11:12:00.483Z,3.20
2023-04-07T11:13:20.758Z,3.28
2023-04-07T11:14:41.337Z,3.30
2023-04-07T11:16:07.501Z,3.30
2023-04-07T11:17:28.170Z,3.42
2023-04-07T11:18:48.886Z,4.10
2023-04-07T11:20:10.208Z,3.75
2023-04-07T11:21:30.807Z,3.03
2023-04-07T11:23:01.025Z,3.45
2023-04-07T11:24:34.648Z,3.38
2023-04-07T11:26:00.509Z,3.10
2023-04-07T11:27:21.322Z,2.90
2023-04-07T11:28:45.857Z,3.33
2023-04-07T11:30:09.276Z,3.40
2023-04-07T11:31:30.989Z,3.75
2023-04-07T11:34:11.594Z,2.60
2023-04-07T11:35:32.301Z,2.87
2023-04-07T11:36:52.723Z,3.17
2023-04-07T11:38:14.896Z,3.95
2023-04-07T11:39:35.860Z,4.22
2023-04-07T11:40:56.974Z,3.60
2023-04-07T11:42:32.137Z,3.97
2023-04-07T11:44:04.916Z,3.75
2023-04-07T11:45:25.513Z,3.80
2023-04-07T11:46:56.522Z,3.45
2023-04-07T11:48:26.951Z,7.03
2023-04-07T11:49:48.424Z,3.17
2023-04-07T11:52:43.923Z,3.40
2023-04-07T11:54:05.776Z,3.33
2023-04-07T11:55:26.127Z,3.10
2023-04-07T11:56:47.876Z,3.30
2023-04-07T11:58:08.557Z,2.55
2023-04-07T11:59:29.238Z,3.10
2023-04-07T12:00:56.274Z,4.13
2023-04-07T12:02:31.414Z,3.30
2023-04-07T12:03:57.203Z,3.22
2023-04-07T12:05:18.300Z,3.30
2023-04-07T12:06:39.247Z,3.38
2023-04-07T12:07:59.924Z,2.90
2023-04-07T12:09:30.039Z,3.80
2023-04-07T12:11:03.295Z,3.33
2023-04-07T12:12:28.684Z,3.00
2023-04-07T12:13:49.280Z,3.50
2023-04-07T12:15:10.862Z,2.65
2023-04-07T12:16:31.690Z,3.10
2023-04-07T12:17:52.103Z,2.58
2023-04-07T12:19:12.551Z,2.15
2023-04-07T12:20:32.817Z,3.30
2023-04-07T12:21:53.247Z,2.80
2023-04-07T12:23:13.795Z,2.63
2023-04-07T12:24:35.624Z,3.15
2023-04-07T12:25:55.972Z,3.55
2023-04-07T12:27:16.610Z,2.90
2023-04-07T12:28:37.465Z,3.03
2023-04-07T12:29:58.197Z,3.13
2023-04-07T12:31:18.857Z,2.55
2023-04-07T12:32:40.293Z,3.10
2023-04-07T12:34:01.263Z,2.85
2023-04-07T12:35:21.711Z,2.50
2023-04-07T12:36:42.197Z,3.00
2023-04-07T12:38:02.629Z,2.88
2023-04-07T12:39:22.958Z,3.20
2023-04-07T12:40:44.949Z,3.20
2023-04-07T12:42:05.717Z,3.15
2023-04-07T12:43:26.395Z,4.00
2023-04-07T12:44:47.098Z,3.20
2023-04-07T12:46:07.347Z,3.83
2023-04-07T12:47:27.963Z,3.47
2023-04-07T12:48:48.841Z,4.18
2023-04-07T12:50:09.984Z,3.20
2023-04-07T12:51:30.963Z,3.55
2023-04-07T12:52:51.744Z,3.13
2023-04-07T12:54:12.303Z,4.00
2023-04-07T12:55:32.931Z,3.30
2023-04-07T12:56:54.716Z,3.40
2023-04-07T12:58:15.461Z,3.45
2023-04-07T12:59:36.135Z,2.63
2023-04-07T13:00:56.926Z,2.60
2023-04-07T13:02:17.686Z,3.00
2023-04-07T13:03:41.246Z,2.37
2023-04-07T13:05:01.809Z,2.90
2023-04-07T13:06:22.410Z,2.70
2023-04-07T13:07:42.786Z,2.83
2023-04-07T13:09:03.549Z,2.60
2023-04-07T13:10:24.440Z,4.03
2023-04-07T13:11:45.191Z,3.75
2023-04-07T13:13:07.124Z,2.60
2023-04-07T13:14:27.653Z,3.58
2023-04-07T13:15:47.860Z,4.05
2023-04-07T13:17:09.126Z,3.70
2023-04-07T13:18:30.155Z,3.40
2023-04-07T13:19:51.080Z,3.50
2023-04-07T13:21:43.058Z,2.90
2023-04-07T13:23:04.594Z,3.38
2023-04-07T13:24:28.392Z,3.15
2023-04-07T13:25:49.271Z,3.70
2023-04-07T13:27:10.107Z,4.32
2023-04-07T13:28:32.027Z,3.83
2023-04-07T13:29:52.610Z,3.50
2023-04-07T13:31:13.248Z,3.85
2023-04-07T13:32:34.100Z,4.07
2023-04-07T13:33:54.905Z,4.07
2023-04-07T13:35:16.455Z,4.90
2023-04-07T13:36:37.098Z,4.13
2023-04-07T13:37:57.666Z,3.70
2023-04-07T13:39:18.398Z,3.53
2023-04-07T13:40:38.889Z,4.65
2023-04-07T13:41:59.777Z,4.00
2023-04-07T13:43:20.110Z,3.90
2023-04-07T13:44:42.199Z,3.40
2023-04-07T13:46:02.970Z,2.90
2023-04-07T13:47:23.647Z,3.95
2023-04-07T13:48:44.533Z,3.60
2023-04-07T13:50:05.948Z,3.50
2023-04-07T13:51:26.672Z,3.55
2023-04-07T13:52:47.461Z,4.40
2023-04-07T13:54:08.934Z,3.72
2023-04-07T13:55:32.463Z,4.25
2023-04-07T13:56:54.504Z,4.40
2023-04-07T13:58:14.974Z,3.90
2023-04-07T13:59:35.681Z,4.13
2023-04-07T14:00:57.876Z,4.32
2023-04-07T14:02:18.769Z,4.63
2023-04-07T14:03:39.240Z,3.88
2023-04-07T14:04:59.973Z,4.47
2023-04-07T14:06:20.533Z,4.20
2023-04-07T14:07:41.432Z,4.20
2023-04-07T14:09:02.323Z,4.80
2023-04-07T14:10:22.915Z,3.13
2023-04-07T14:11:43.634Z,5.25
2023-04-07T14:13:04.421Z,4.85
2023-04-07T14:14:25.357Z,3.88
2023-04-07T14:15:47.420Z,4.47
2023-04-07T14:18:29.782Z,4.55
2023-04-07T14:19:50.457Z,3.60
2023-04-07T14:21:11.068Z,3.85
2023-04-07T14:22:31.660Z,4.63
2023-04-07T14:23:52.636Z,3.53
2023-04-07T14:25:13.247Z,3.88
2023-04-07T14:26:33.906Z,3.65
2023-04-07T14:27:54.270Z,4.20
2023-04-07T14:29:15.228Z,4.13
2023-04-07T14:30:36.275Z,3.50
2023-04-07T14:31:57.082Z,4.72
2023-04-07T14:33:19.187Z,4.22
2023-04-07T14:34:39.957Z,4.63
2023-04-07T14:36:00.628Z,4.80
2023-04-07T14:37:21.155Z,4.05
2023-04-07T14:38:42.991Z,4.30
2023-04-07T14:40:03.904Z,4.68
2023-04-07T14:41:24.486Z,4.27
2023-04-07T14:42:45.114Z,3.20
2023-04-07T14:44:05.848Z,3.83
2023-04-07T14:45:26.602Z,4.13
2023-04-07T14:46:47.483Z,3.88
2023-04-07T14:48:08.069Z,3.93
2023-04-07T14:49:29.821Z,4.05
2023-04-07T14:51:02.203Z,4.63
2023-04-07T14:52:29.349Z,4.13
2023-04-07T14:53:50.242Z,4.20
2023-04-07T14:55:11.196Z,5.20
2023-04-07T14:56:31.997Z,4.53
2023-04-07T14:57:52.326Z,4.57
2023-04-07T14:59:12.899Z,3.92
2023-04-07T15:00:33.713Z,4.13
2023-04-07T15:01:57.395Z,3.60
2023-04-07T15:03:18.424Z,4.30
2023-04-07T15:04:40.820Z,4.13
2023-04-07T15:06:01.491Z,4.30
2023-04-07T15:07:21.988Z,4.57
2023-04-07T15:08:42.853Z,4.60
2023-04-07T15:10:03.626Z,4.73
2023-04-07T15:11:23.969Z,4.13
2023-04-07T15:12:45.850Z,4.18
2023-04-07T15:14:07.606Z,3.78
2023-04-07T15:15:28.289Z,4.20
2023-04-07T15:16:48.874Z,3.83
2023-04-07T15:18:09.500Z,3.67
2023-04-07T15:19:30.069Z,3.50
2023-04-07T15:20:52.172Z,3.45
2023-04-07T15:22:13.159Z,4.50
2023-04-07T15:23:33.890Z,3.78
2023-04-07T15:24:54.690Z,3.95
2023-04-07T15:26:15.373Z,3.90
2023-04-07T15:27:35.716Z,4.72
2023-04-07T15:28:56.409Z,4.68
2023-04-07T15:30:16.973Z,4.38
2023-04-07T15:31:37.951Z,4.10
2023-04-07T15:32:58.938Z,4.45
2023-04-07T15:34:19.399Z,3.88
2023-04-07T15:35:41.018Z,4.32
2023-04-07T15:37:04.060Z,4.68
2023-04-07T15:38:24.583Z,3.55
2023-04-07T15:39:45.114Z,4.43
2023-04-07T15:41:05.942Z,4.72
2023-04-07T15:42:26.276Z,4.80
2023-04-07T15:43:50.762Z,4.60
2023-04-07T15:45:11.830Z,4.35
2023-04-07T15:46:32.569Z,4.32
2023-04-07T15:47:53.625Z,4.20
2023-04-07T15:49:14.290Z,4.55
2023-04-07T15:50:35.018Z,3.93
2023-04-07T15:51:55.841Z,4.30
2023-04-07T15:53:18.091Z,3.95
2023-04-07T15:54:38.581Z,4.00
2023-04-07T15:55:59.178Z,4.50
2023-04-07T15:57:19.806Z,4.60
2023-04-07T15:58:40.537Z,5.32
2023-04-07T16:00:01.111Z,4.38
2023-04-07T16:01:21.501Z,5.20
2023-04-07T16:02:42.326Z,4.65
2023-04-07T16:04:02.929Z,5.30
2023-04-07T16:05:23.467Z,5.78
2023-04-07T16:06:44.335Z,5.03
2023-04-07T16:08:05.218Z,4.63
2023-04-07T16:09:27.182Z,4.75
2023-04-07T16:10:47.621Z,5.65
2023-04-07T16:12:08.390Z,4.72
2023-04-07T16:13:29.193Z,5.70
2023-04-07T16:14:49.482Z,4.82
2023-04-07T16:16:10.317Z,4.32
2023-04-07T16:17:30.730Z,4.13
2023-04-07T16:18:51.322Z,3.35
2023-04-07T16:20:12.285Z,4.25
2023-04-07T16:21:33.003Z,4.65
2023-04-07T16:22:53.324Z,4.50
2023-04-07T16:24:14.291Z,4.43
2023-04-07T16:25:36.318Z,4.85
2023-04-07T16:26:56.867Z,5.72
2023-04-07T16:28:17.435Z,4.20
2023-04-07T16:29:38.149Z,4.95
2023-04-07T16:30:58.727Z,4.85
2023-04-07T16:32:19.438Z,4.57
2023-04-07T16:33:40.144Z,3.90
2023-04-07T16:35:00.631Z,3.80
2023-04-07T16:36:21.467Z,3.65
2023-04-07T16:37:42.665Z,4.07
2023-04-07T16:39:03.253Z,4.03
2023-04-07T16:40:23.990Z,4.80
2023-04-07T16:41:46.046Z,5.30
2023-04-07T16:43:06.547Z,5.07
2023-04-07T16:44:27.391Z,5.63
2023-04-07T16:45:50.356Z,5.00
2023-04-07T16:47:10.748Z,5.50
2023-04-07T16:48:31.577Z,5.43
2023-04-07T16:49:52.294Z,5.35
2023-04-07T16:51:16.410Z,4.03
2023-04-07T16:52:36.884Z,4.75
2023-04-07T16:53:57.417Z,5.28
2023-04-07T16:55:18.157Z,4.55
2023-04-07T16:56:38.850Z,4.00
2023-04-07T16:58:00.753Z,5.03
2023-04-07T16:59:21.813Z,5.35
2023-04-07T17:00:42.231Z,5.07
2023-04-07T17:02:07.347Z,5.13
2023-04-07T17:03:28.289Z,5.10
2023-04-07T17:04:49.042Z,5.65
2023-04-07T17:06:10.010Z,6.22
2023-04-07T17:07:30.581Z,5.05
2023-04-07T17:08:51.145Z,4.90
2023-04-07T17:10:11.991Z,5.10
2023-04-07T17:11:32.947Z,5.75
2023-04-07T17:12:53.947Z,4.93
2023-04-07T17:14:15.529Z,4.70
2023-04-07T17:15:36.468Z,4.82
2023-04-07T17:16:57.342Z,4.57
2023-04-07T17:18:17.753Z,4.75
2023-04-07T17:19:38.475Z,5.05
2023-04-07T17:20:59.070Z,6.75
2023-04-07T17:22:20.120Z,4.93
2023-04-07T17:23:40.481Z,5.07
2023-04-07T17:25:01.067Z,6.03
2023-04-07T17:26:21.784Z,5.80
2023-04-07T17:27:42.803Z,5.43
2023-04-07T17:29:03.261Z,4.75
2023-04-07T17:30:25.295Z,4.63
2023-04-07T17:31:45.959Z,5.75
2023-04-07T17:33:06.506Z,5.05
2023-04-07T17:34:27.090Z,5.68
2023-04-07T17:35:47.936Z,6.13
2023-04-07T17:37:08.335Z,6.07
2023-04-07T17:38:28.768Z,4.88
2023-04-07T17:39:49.423Z,5.30
2023-04-07T17:41:09.883Z,5.15
2023-04-07T17:42:30.733Z,6.25
2023-04-07T17:43:51.548Z,5.47
2023-04-07T17:45:12.171Z,6.18
2023-04-07T17:46:34.167Z,6.88
2023-04-07T17:47:55.228Z,6.90
2023-04-07T17:49:15.698Z,6.80
2023-04-07T17:50:36.437Z,5.85
2023-04-07T17:51:57.140Z,7.38
2023-04-07T17:53:18.566Z,6.82
2023-04-07T17:54:39.000Z,6.28
2023-04-07T17:55:59.577Z,5.70
2023-04-07T17:57:22.288Z,6.45
2023-04-07T17:58:43.869Z,7.18
2023-04-07T18:00:07.275Z,6.03
2023-04-07T18:01:28.100Z,6.35
2023-04-07T18:02:50.416Z,6.43
2023-04-07T18:04:11.873Z,6.97
2023-04-07T18:05:32.341Z,7.07
2023-04-07T18:06:52.804Z,6.93
2023-04-07T18:08:13.509Z,7.38
2023-04-07T18:09:34.540Z,6.80
2023-04-07T18:10:55.013Z,7.93
2023-04-07T18:12:15.653Z,8.40
2023-04-07T18:13:36.410Z,7.10
2023-04-07T18:14:57.250Z,8.82
2023-04-07T18:16:20.541Z,7.93
2023-04-07T18:17:42.746Z,7.97
2023-04-07T18:19:04.695Z,9.75
2023-04-07T18:20:25.312Z,7.57
2023-04-07T18:21:45.940Z,7.00
2023-04-07T18:23:06.537Z,7.93
2023-04-07T18:24:27.288Z,7.95
2023-04-07T18:25:48.217Z,6.63
2023-04-07T18:27:09.043Z,8.00